sensor_id;sensor_type;location;lat;lon;timestamp;pressure;altitude;pressure_sealevel;temperature
24201;BMP280;2801;50.972;7.856;2023-07-22T00:01:35;97460.63;;;10.11
24201;BMP280;2801;50.972;7.856;2023-07-22T00:04:03;97465.06;;;10.07
24201;BMP280;2801;50.972;7.856;2023-07-22T00:06:31;97468.03;;;10.14
24201;BMP280;2801;50.972;7.856;2023-07-22T00:08:57;97465.38;;;10.14
24201;BMP280;2801;50.972;7.856;2023-07-22T00:11:24;97463.31;;;10.11
24201;BMP280;2801;50.972;7.856;2023-07-22T00:13:51;97458.59;;;10.08
24201;BMP280;2801;50.972;7.856;2023-07-22T00:16:18;97461.28;;;10.08
24201;BMP280;2801;50.972;7.856;2023-07-22T00:18:46;97454.66;;;10.05
24201;BMP280;2801;50.972;7.856;2023-07-22T00:21:14;97466.63;;;10.08
24201;BMP280;2801;50.972;7.856;2023-07-22T00:23:41;97468.06;;;10.05
24201;BMP280;2801;50.972;7.856;2023-07-22T00:26:08;97469.78;;;10.01
24201;BMP280;2801;50.972;7.856;2023-07-22T00:28:36;97466.78;;;9.94
24201;BMP280;2801;50.972;7.856;2023-07-22T00:31:03;97463.97;;;9.91
24201;BMP280;2801;50.972;7.856;2023-07-22T00:33:40;97461.00;;;9.84
24201;BMP280;2801;50.972;7.856;2023-07-22T00:36:07;97468.53;;;9.82
24201;BMP280;2801;50.972;7.856;2023-07-22T00:38:34;97469.19;;;9.79
24201;BMP280;2801;50.972;7.856;2023-07-22T00:41:26;97470.13;;;9.74
24201;BMP280;2801;50.972;7.856;2023-07-22T00:43:53;97471.38;;;9.77
24201;BMP280;2801;50.972;7.856;2023-07-22T00:46:20;97459.13;;;9.76
24201;BMP280;2801;50.972;7.856;2023-07-22T00:49:16;97477.22;;;9.70
24201;BMP280;2801;50.972;7.856;2023-07-22T00:51:43;97468.25;;;9.75
24201;BMP280;2801;50.972;7.856;2023-07-22T00:54:10;97474.22;;;9.72
24201;BMP280;2801;50.972;7.856;2023-07-22T00:57:09;97458.81;;;9.60
24201;BMP280;2801;50.972;7.856;2023-07-22T00:59:36;97466.84;;;9.60
24201;BMP280;2801;50.972;7.856;2023-07-22T01:02:03;97468.56;;;9.56
24201;BMP280;2801;50.972;7.856;2023-07-22T01:05:11;97472.34;;;9.47
24201;BMP280;2801;50.972;7.856;2023-07-22T01:07:39;97478.00;;;9.45
24201;BMP280;2801;50.972;7.856;2023-07-22T01:10:07;97478.34;;;9.35
24201;BMP280;2801;50.972;7.856;2023-07-22T01:13:06;97474.53;;;9.19
24201;BMP280;2801;50.972;7.856;2023-07-22T01:15:33;97486.19;;;9.23
24201;BMP280;2801;50.972;7.856;2023-07-22T01:18:03;97471.84;;;9.19
24201;BMP280;2801;50.972;7.856;2023-07-22T01:20:30;97470.13;;;9.23
24201;BMP280;2801;50.972;7.856;2023-07-22T01:23:31;97477.06;;;9.16
24201;BMP280;2801;50.972;7.856;2023-07-22T01:26:06;97465.72;;;9.10
24201;BMP280;2801;50.972;7.856;2023-07-22T01:29:05;97474.69;;;9.06
24201;BMP280;2801;50.972;7.856;2023-07-22T01:31:37;97466.97;;;9.04
24201;BMP280;2801;50.972;7.856;2023-07-22T01:34:05;97468.25;;;9.07
24201;BMP280;2801;50.972;7.856;2023-07-22T01:36:32;97467.75;;;9.05
24201;BMP280;2801;50.972;7.856;2023-07-22T01:39:21;97467.63;;;9.01
24201;BMP280;2801;50.972;7.856;2023-07-22T01:41:48;97467.13;;;8.99
24201;BMP280;2801;50.972;7.856;2023-07-22T01:44:15;97458.31;;;8.99
24201;BMP280;2801;50.972;7.856;2023-07-22T01:46:43;97464.59;;;9.03
24201;BMP280;2801;50.972;7.856;2023-07-22T01:49:43;97463.19;;;8.97
24201;BMP280;2801;50.972;7.856;2023-07-22T01:52:11;97457.84;;;8.97
24201;BMP280;2801;50.972;7.856;2023-07-22T01:54:37;97464.59;;;8.94
24201;BMP280;2801;50.972;7.856;2023-07-22T01:57:30;97461.91;;;8.86
24201;BMP280;2801;50.972;7.856;2023-07-22T01:59:57;97468.81;;;8.87
24201;BMP280;2801;50.972;7.856;2023-07-22T02:02:24;97470.53;;;8.83
24201;BMP280;2801;50.972;7.856;2023-07-22T02:05:23;97462.81;;;8.73
24201;BMP280;2801;50.972;7.856;2023-07-22T02:07:51;97467.72;;;8.79
24201;BMP280;2801;50.972;7.856;2023-07-22T02:10:18;97458.59;;;8.80
24201;BMP280;2801;50.972;7.856;2023-07-22T02:13:19;97461.25;;;8.72
24201;BMP280;2801;50.972;7.856;2023-07-22T02:15:46;97463.28;;;8.75
24201;BMP280;2801;50.972;7.856;2023-07-22T02:18:14;97461.72;;;8.74
24201;BMP280;2801;50.972;7.856;2023-07-22T02:21:06;97458.88;;;8.70
24201;BMP280;2801;50.972;7.856;2023-07-22T02:23:37;97468.78;;;8.70
24201;BMP280;2801;50.972;7.856;2023-07-22T02:26:04;97470.81;;;8.64
24201;BMP280;2801;50.972;7.856;2023-07-22T02:28:32;97469.56;;;8.62
24201;BMP280;2801;50.972;7.856;2023-07-22T02:31:03;97460.41;;;8.54
24201;BMP280;2801;50.972;7.856;2023-07-22T02:34:01;97461.31;;;8.50
24201;BMP280;2801;50.972;7.856;2023-07-22T02:36:28;97462.28;;;8.54
24201;BMP280;2801;50.972;7.856;2023-07-22T02:38:56;97467.31;;;8.55
24201;BMP280;2801;50.972;7.856;2023-07-22T02:41:57;97469.81;;;8.52
24201;BMP280;2801;50.972;7.856;2023-07-22T02:44:27;97469.81;;;8.52
24201;BMP280;2801;50.972;7.856;2023-07-22T02:46:54;97474.38;;;8.51
24201;BMP280;2801;50.972;7.856;2023-07-22T02:49:21;97462.13;;;8.50
24201;BMP280;2801;50.972;7.856;2023-07-22T02:52:13;97470.13;;;8.50
24201;BMP280;2801;50.972;7.856;2023-07-22T02:54:40;97464.78;;;8.50
24201;BMP280;2801;50.972;7.856;2023-07-22T02:57:08;97461.97;;;8.47
24201;BMP280;2801;50.972;7.856;2023-07-22T02:59:35;97468.56;;;8.49
24201;BMP280;2801;50.972;7.856;2023-07-22T03:02:02;97454.69;;;8.39
24201;BMP280;2801;50.972;7.856;2023-07-22T03:04:54;97475.28;;;8.38
24201;BMP280;2801;50.972;7.856;2023-07-22T03:07:23;97472.91;;;8.37
24201;BMP280;2801;50.972;7.856;2023-07-22T03:09:50;97466.31;;;8.34
24201;BMP280;2801;50.972;7.856;2023-07-22T03:12:42;97474.03;;;8.36
24201;BMP280;2801;50.972;7.856;2023-07-22T03:15:09;97471.03;;;8.37
24201;BMP280;2801;50.972;7.856;2023-07-22T03:17:40;97478.59;;;8.44
24201;BMP280;2801;50.972;7.856;2023-07-22T03:20:42;97479.50;;;8.39
24201;BMP280;2801;50.972;7.856;2023-07-22T03:23:09;97482.03;;;8.36
24201;BMP280;2801;50.972;7.856;2023-07-22T03:25:36;97480.75;;;8.33
24201;BMP280;2801;50.972;7.856;2023-07-22T03:28:37;97480.88;;;8.28
24201;BMP280;2801;50.972;7.856;2023-07-22T03:31:04;97481.97;;;8.27
24201;BMP280;2801;50.972;7.856;2023-07-22T03:33:56;97481.03;;;8.23
24201;BMP280;2801;50.972;7.856;2023-07-22T03:36:26;97484.66;;;8.27
24201;BMP280;2801;50.972;7.856;2023-07-22T03:38:54;97483.75;;;8.32
24201;BMP280;2801;50.972;7.856;2023-07-22T03:41:21;97488.13;;;8.36
24201;BMP280;2801;50.972;7.856;2023-07-22T03:44:16;97483.44;;;8.33
24201;BMP280;2801;50.972;7.856;2023-07-22T03:46:43;97482.69;;;8.41
24201;BMP280;2801;50.972;7.856;2023-07-22T03:49:10;97484.06;;;8.39
24201;BMP280;2801;50.972;7.856;2023-07-22T03:52:02;97483.59;;;8.37
24201;BMP280;2801;50.972;7.856;2023-07-22T03:54:29;97483.00;;;8.40
24201;BMP280;2801;50.972;7.856;2023-07-22T03:56:56;97486.28;;;8.37
24201;BMP280;2801;50.972;7.856;2023-07-22T03:59:57;97481.38;;;8.30
24201;BMP280;2801;50.972;7.856;2023-07-22T04:02:25;97478.41;;;8.32
24201;BMP280;2801;50.972;7.856;2023-07-22T04:04:54;97476.38;;;8.37
24201;BMP280;2801;50.972;7.856;2023-07-22T04:07:22;97468.66;;;8.36
24201;BMP280;2801;50.972;7.856;2023-07-22T04:10:14;97471.94;;;8.33
24201;BMP280;2801;50.972;7.856;2023-07-22T04:12:41;97474.63;;;8.33
24201;BMP280;2801;50.972;7.856;2023-07-22T04:15:09;97474.94;;;8.31
24201;BMP280;2801;50.972;7.856;2023-07-22T04:17:36;97481.22;;;8.35
24201;BMP280;2801;50.972;7.856;2023-07-22T04:20:03;97473.53;;;8.34
24201;BMP280;2801;50.972;7.856;2023-07-22T04:23:16;97473.06;;;8.40
24201;BMP280;2801;50.972;7.856;2023-07-22T04:26:11;97478.41;;;8.40
24201;BMP280;2801;50.972;7.856;2023-07-22T04:28:41;97472.47;;;8.43
24201;BMP280;2801;50.972;7.856;2023-07-22T04:31:08;97480.50;;;8.52
24201;BMP280;2801;50.972;7.856;2023-07-22T04:33:36;97482.91;;;8.62
24201;BMP280;2801;50.972;7.856;2023-07-22T04:36:31;97476.00;;;8.69
24201;BMP280;2801;50.972;7.856;2023-07-22T04:38:58;97478.88;;;8.81
24201;BMP280;2801;50.972;7.856;2023-07-22T04:41:26;97471.97;;;8.89
24201;BMP280;2801;50.972;7.856;2023-07-22T04:44:19;97479.69;;;8.99
24201;BMP280;2801;50.972;7.856;2023-07-22T04:46:46;97480.03;;;9.14
24201;BMP280;2801;50.972;7.856;2023-07-22T04:49:13;97470.13;;;9.23
24201;BMP280;2801;50.972;7.856;2023-07-22T04:52:07;97467.31;;;9.37
24201;BMP280;2801;50.972;7.856;2023-07-22T04:54:34;97479.13;;;9.53
24201;BMP280;2801;50.972;7.856;2023-07-22T04:57:02;97474.88;;;9.60
24201;BMP280;2801;50.972;7.856;2023-07-22T05:00:02;97479.59;;;9.72
24201;BMP280;2801;50.972;7.856;2023-07-22T05:02:32;97475.63;;;9.86
24201;BMP280;2801;50.972;7.856;2023-07-22T05:05:41;97483.97;;;10.02
24201;BMP280;2801;50.972;7.856;2023-07-22T05:08:08;97485.03;;;10.18
24201;BMP280;2801;50.972;7.856;2023-07-22T05:10:36;97473.94;;;10.36
24201;BMP280;2801;50.972;7.856;2023-07-22T05:13:29;97478.34;;;10.78
24201;BMP280;2801;50.972;7.856;2023-07-22T05:15:56;97471.94;;;11.20
24201;BMP280;2801;50.972;7.856;2023-07-22T05:18:23;97476.84;;;11.60
24201;BMP280;2801;50.972;7.856;2023-07-22T05:20:50;97455.63;;;11.87
24201;BMP280;2801;50.972;7.856;2023-07-22T05:23:45;97468.94;;;12.28
24201;BMP280;2801;50.972;7.856;2023-07-22T05:26:12;97469.53;;;12.58
24201;BMP280;2801;50.972;7.856;2023-07-22T05:28:39;97476.03;;;12.81
24201;BMP280;2801;50.972;7.856;2023-07-22T05:31:22;97466.31;;;13.00
24201;BMP280;2801;50.972;7.856;2023-07-22T05:33:55;97461.47;;;13.18
24201;BMP280;2801;50.972;7.856;2023-07-22T05:36:22;97463.47;;;13.33
24201;BMP280;2801;50.972;7.856;2023-07-22T05:38:49;97470.81;;;13.48
24201;BMP280;2801;50.972;7.856;2023-07-22T05:41:56;97468.44;;;13.58
24201;BMP280;2801;50.972;7.856;2023-07-22T05:44:23;97465.41;;;13.60
24201;BMP280;2801;50.972;7.856;2023-07-22T05:46:50;97468.22;;;13.63
24201;BMP280;2801;50.972;7.856;2023-07-22T05:52:21;97460.63;;;13.96
24201;BMP280;2801;50.972;7.856;2023-07-22T05:54:49;97458.50;;;14.17
24201;BMP280;2801;50.972;7.856;2023-07-22T05:57:16;97455.44;;;14.46
24201;BMP280;2801;50.972;7.856;2023-07-22T05:59:43;97435.84;;;14.65
24201;BMP280;2801;50.972;7.856;2023-07-22T06:02:13;97450.72;;;14.90
24201;BMP280;2801;50.972;7.856;2023-07-22T06:04:40;97443.66;;;15.01
24201;BMP280;2801;50.972;7.856;2023-07-22T06:07:07;97452.41;;;15.14
24201;BMP280;2801;50.972;7.856;2023-07-22T06:09:34;97452.47;;;15.33
24201;BMP280;2801;50.972;7.856;2023-07-22T06:12:02;97456.84;;;15.56
24201;BMP280;2801;50.972;7.856;2023-07-22T06:14:29;97458.84;;;15.78
24201;BMP280;2801;50.972;7.856;2023-07-22T06:16:56;97456.56;;;15.99
24201;BMP280;2801;50.972;7.856;2023-07-22T06:19:23;97451.81;;;16.15
24201;BMP280;2801;50.972;7.856;2023-07-22T06:21:50;97459.06;;;16.30
24201;BMP280;2801;50.972;7.856;2023-07-22T06:24:18;97453.50;;;16.42
24201;BMP280;2801;50.972;7.856;2023-07-22T06:26:45;97457.13;;;16.50
24201;BMP280;2801;50.972;7.856;2023-07-22T06:29:13;97454.94;;;16.59
24201;BMP280;2801;50.972;7.856;2023-07-22T06:31:39;97457.88;;;16.73
24201;BMP280;2801;50.972;7.856;2023-07-22T06:34:06;97451.78;;;16.79
24201;BMP280;2801;50.972;7.856;2023-07-22T06:36:33;97458.88;;;16.87
24201;BMP280;2801;50.972;7.856;2023-07-22T06:39:00;97450.16;;;16.97
24201;BMP280;2801;50.972;7.856;2023-07-22T06:41:27;97451.38;;;17.03
24201;BMP280;2801;50.972;7.856;2023-07-22T07:42:01;97453.91;;;18.84
24201;BMP280;2801;50.972;7.856;2023-07-22T07:44:31;97445.44;;;18.93
24201;BMP280;2801;50.972;7.856;2023-07-22T07:46:58;97445.19;;;19.12
24201;BMP280;2801;50.972;7.856;2023-07-22T07:49:25;97448.28;;;19.14
24201;BMP280;2801;50.972;7.856;2023-07-22T07:51:52;97447.13;;;19.15
24201;BMP280;2801;50.972;7.856;2023-07-22T07:54:20;97440.19;;;19.17
24201;BMP280;2801;50.972;7.856;2023-07-22T07:56:47;97446.59;;;19.46
24201;BMP280;2801;50.972;7.856;2023-07-22T07:59:14;97445.16;;;19.76
24201;BMP280;2801;50.972;7.856;2023-07-22T08:01:41;97437.06;;;19.94
24201;BMP280;2801;50.972;7.856;2023-07-22T08:04:09;97448.06;;;20.11
24201;BMP280;2801;50.972;7.856;2023-07-22T08:06:40;97439.44;;;20.06
24201;BMP280;2801;50.972;7.856;2023-07-22T08:09:07;97430.81;;;19.90
24201;BMP280;2801;50.972;7.856;2023-07-22T08:11:38;97443.28;;;19.98
24201;BMP280;2801;50.972;7.856;2023-07-22T08:14:05;97453.06;;;20.06
24201;BMP280;2801;50.972;7.856;2023-07-22T08:16:34;97443.34;;;20.08
24201;BMP280;2801;50.972;7.856;2023-07-22T08:19:02;97443.00;;;20.20
24201;BMP280;2801;50.972;7.856;2023-07-22T08:21:30;97443.41;;;20.29
24201;BMP280;2801;50.972;7.856;2023-07-22T08:24:00;97442.25;;;20.41
24201;BMP280;2801;50.972;7.856;2023-07-22T08:26:27;97443.41;;;20.47
24201;BMP280;2801;50.972;7.856;2023-07-22T08:28:55;97445.78;;;20.45
24201;BMP280;2801;50.972;7.856;2023-07-22T08:31:22;97444.22;;;20.44
24201;BMP280;2801;50.972;7.856;2023-07-22T08:33:50;97440.31;;;20.45
24201;BMP280;2801;50.972;7.856;2023-07-22T08:36:17;97439.56;;;20.48
24201;BMP280;2801;50.972;7.856;2023-07-22T09:28:56;97425.16;;;21.03
24201;BMP280;2801;50.972;7.856;2023-07-22T09:31:26;97424.00;;;21.08
24201;BMP280;2801;50.972;7.856;2023-07-22T09:34:09;97423.25;;;21.04
24201;BMP280;2801;50.972;7.856;2023-07-22T09:37:05;97418.53;;;20.90
24201;BMP280;2801;50.972;7.856;2023-07-22T09:39:35;97435.31;;;20.92
24201;BMP280;2801;50.972;7.856;2023-07-22T09:42:04;97429.06;;;20.99
24201;BMP280;2801;50.972;7.856;2023-07-22T09:44:31;97422.44;;;21.10
24201;BMP280;2801;50.972;7.856;2023-07-22T09:47:07;97429.78;;;21.27
24201;BMP280;2801;50.972;7.856;2023-07-22T09:49:40;97418.84;;;21.48
24201;BMP280;2801;50.972;7.856;2023-07-22T09:52:11;97415.31;;;21.55
24201;BMP280;2801;50.972;7.856;2023-07-22T09:54:48;97420.75;;;21.62
24201;BMP280;2801;50.972;7.856;2023-07-22T09:57:17;97420.34;;;21.64
24201;BMP280;2801;50.972;7.856;2023-07-22T09:59:46;97417.59;;;21.67
24201;BMP280;2801;50.972;7.856;2023-07-22T10:02:18;97410.97;;;21.72
24201;BMP280;2801;50.972;7.856;2023-07-22T10:04:48;97410.16;;;21.85
24201;BMP280;2801;50.972;7.856;2023-07-22T10:07:18;97415.16;;;22.01
24201;BMP280;2801;50.972;7.856;2023-07-22T10:09:47;97404.19;;;22.08
24201;BMP280;2801;50.972;7.856;2023-07-22T10:12:14;97411.53;;;22.18
24201;BMP280;2801;50.972;7.856;2023-07-22T10:14:43;97404.13;;;22.15
24201;BMP280;2801;50.972;7.856;2023-07-22T10:17:11;97409.56;;;22.15
24201;BMP280;2801;50.972;7.856;2023-07-22T10:19:40;97395.53;;;22.16
24201;BMP280;2801;50.972;7.856;2023-07-22T10:22:12;97392.44;;;22.14
24201;BMP280;2801;50.972;7.856;2023-07-22T10:24:40;97393.94;;;22.22
24201;BMP280;2801;50.972;7.856;2023-07-22T10:27:08;97396.28;;;22.24
24201;BMP280;2801;50.972;7.856;2023-07-22T10:29:37;97395.47;;;22.27
24201;BMP280;2801;50.972;7.856;2023-07-22T10:32:05;97386.50;;;22.26
24201;BMP280;2801;50.972;7.856;2023-07-22T10:34:33;97388.06;;;22.27
24201;BMP280;2801;50.972;7.856;2023-07-22T10:37:00;97386.84;;;22.32
24201;BMP280;2801;50.972;7.856;2023-07-22T10:39:28;97384.13;;;22.32
24201;BMP280;2801;50.972;7.856;2023-07-22T10:42:06;97380.25;;;22.29
24201;BMP280;2801;50.972;7.856;2023-07-22T10:44:36;97379.84;;;22.31
24201;BMP280;2801;50.972;7.856;2023-07-22T10:47:04;97378.25;;;22.33
24201;BMP280;2801;50.972;7.856;2023-07-22T10:49:48;97374.78;;;22.29
24201;BMP280;2801;50.972;7.856;2023-07-22T10:52:43;97383.63;;;22.44
24201;BMP280;2801;50.972;7.856;2023-07-22T10:55:16;97381.59;;;22.58
24201;BMP280;2801;50.972;7.856;2023-07-22T10:57:52;97375.16;;;22.79
24201;BMP280;2801;50.972;7.856;2023-07-22T11:00:21;97367.25;;;22.91
24201;BMP280;2801;50.972;7.856;2023-07-22T11:03:13;97367.22;;;22.95
24201;BMP280;2801;50.972;7.856;2023-07-22T11:05:53;97360.63;;;22.92
24201;BMP280;2801;50.972;7.856;2023-07-22T11:08:39;97356.69;;;22.93
24201;BMP280;2801;50.972;7.856;2023-07-22T11:11:07;97357.72;;;23.06
24201;BMP280;2801;50.972;7.856;2023-07-22T11:13:38;97357.97;;;23.19
24201;BMP280;2801;50.972;7.856;2023-07-22T11:16:11;97347.31;;;23.31
24201;BMP280;2801;50.972;7.856;2023-07-22T11:18:40;97345.69;;;23.37
24201;BMP280;2801;50.972;7.856;2023-07-22T11:21:12;97339.78;;;23.42
24201;BMP280;2801;50.972;7.856;2023-07-22T11:23:39;97334.25;;;23.46
24201;BMP280;2801;50.972;7.856;2023-07-22T11:26:06;97325.31;;;23.42
24201;BMP280;2801;50.972;7.856;2023-07-22T11:28:33;97338.81;;;23.56
24201;BMP280;2801;50.972;7.856;2023-07-22T11:31:01;97322.63;;;23.68
24201;BMP280;2801;50.972;7.856;2023-07-22T11:33:39;97321.06;;;23.67
24201;BMP280;2801;50.972;7.856;2023-07-22T11:36:07;97329.66;;;23.69
24201;BMP280;2801;50.972;7.856;2023-07-22T11:38:40;97323.22;;;23.53
24201;BMP280;2801;50.972;7.856;2023-07-22T11:41:09;97328.09;;;23.38
24201;BMP280;2801;50.972;7.856;2023-07-22T11:43:41;97328.34;;;23.14
24201;BMP280;2801;50.972;7.856;2023-07-22T11:46:17;97324.97;;;23.03
24201;BMP280;2801;50.972;7.856;2023-07-22T11:48:52;97329.28;;;23.00
24201;BMP280;2801;50.972;7.856;2023-07-22T11:51:24;97317.84;;;23.09
24201;BMP280;2801;50.972;7.856;2023-07-22T11:53:54;97320.28;;;23.37
24201;BMP280;2801;50.972;7.856;2023-07-22T11:56:28;97318.75;;;23.36
24201;BMP280;2801;50.972;7.856;2023-07-22T11:58:56;97313.59;;;23.41
24201;BMP280;2801;50.972;7.856;2023-07-22T12:01:23;97314.38;;;23.42
24201;BMP280;2801;50.972;7.856;2023-07-22T12:03:56;97311.72;;;23.35
24201;BMP280;2801;50.972;7.856;2023-07-22T12:06:26;97300.44;;;23.29
24201;BMP280;2801;50.972;7.856;2023-07-22T12:08:54;97297.72;;;23.29
24201;BMP280;2801;50.972;7.856;2023-07-22T12:11:23;97289.59;;;23.22
24201;BMP280;2801;50.972;7.856;2023-07-22T12:14:09;97299.63;;;23.32
24201;BMP280;2801;50.972;7.856;2023-07-22T12:16:42;97301.41;;;23.46
24201;BMP280;2801;50.972;7.856;2023-07-22T12:19:09;97303.00;;;23.73
24201;BMP280;2801;50.972;7.856;2023-07-22T12:21:36;97296.69;;;24.06
24201;BMP280;2801;50.972;7.856;2023-07-22T12:24:04;97290.50;;;24.25
24201;BMP280;2801;50.972;7.856;2023-07-22T12:26:31;97288.41;;;24.33
24201;BMP280;2801;50.972;7.856;2023-07-22T12:28:58;97289.78;;;24.44
24201;BMP280;2801;50.972;7.856;2023-07-22T12:31:26;97293.34;;;24.41
24201;BMP280;2801;50.972;7.856;2023-07-22T12:33:53;97283.47;;;24.47
24201;BMP280;2801;50.972;7.856;2023-07-22T12:36:20;97278.59;;;24.58
24201;BMP280;2801;50.972;7.856;2023-07-22T12:38:47;97278.19;;;24.60
24201;BMP280;2801;50.972;7.856;2023-07-22T12:41:14;97275.91;;;24.55
24201;BMP280;2801;50.972;7.856;2023-07-22T12:43:41;97266.06;;;24.57
24201;BMP280;2801;50.972;7.856;2023-07-22T12:46:08;97261.31;;;24.61
24201;BMP280;2801;50.972;7.856;2023-07-22T12:48:35;97264.84;;;24.62
24201;BMP280;2801;50.972;7.856;2023-07-22T12:51:02;97275.38;;;24.63
24201;BMP280;2801;50.972;7.856;2023-07-22T12:53:29;97263.03;;;24.75
24201;BMP280;2801;50.972;7.856;2023-07-22T12:55:58;97261.44;;;24.78
24201;BMP280;2801;50.972;7.856;2023-07-22T12:58:25;97256.28;;;24.80
24201;BMP280;2801;50.972;7.856;2023-07-22T13:00:52;97264.00;;;24.65
24201;BMP280;2801;50.972;7.856;2023-07-22T13:03:19;97260.44;;;24.68
24201;BMP280;2801;50.972;7.856;2023-07-22T13:05:46;97252.00;;;24.79
24201;BMP280;2801;50.972;7.856;2023-07-22T13:08:15;97261.47;;;24.74
24201;BMP280;2801;50.972;7.856;2023-07-22T13:10:42;97263.22;;;24.64
24201;BMP280;2801;50.972;7.856;2023-07-22T13:13:11;97260.66;;;24.54
24201;BMP280;2801;50.972;7.856;2023-07-22T13:15:38;97265.84;;;24.48
24201;BMP280;2801;50.972;7.856;2023-07-22T13:18:05;97260.00;;;24.46
24201;BMP280;2801;50.972;7.856;2023-07-22T13:20:32;97249.94;;;24.63
24201;BMP280;2801;50.972;7.856;2023-07-22T13:22:59;97255.31;;;24.90
24201;BMP280;2801;50.972;7.856;2023-07-22T13:25:26;97239.28;;;24.88
24201;BMP280;2801;50.972;7.856;2023-07-22T13:27:53;97236.75;;;24.97
24201;BMP280;2801;50.972;7.856;2023-07-22T13:30:21;97246.88;;;25.00
24201;BMP280;2801;50.972;7.856;2023-07-22T13:32:48;97244.28;;;25.32
24201;BMP280;2801;50.972;7.856;2023-07-22T13:35:15;97244.75;;;25.47
24201;BMP280;2801;50.972;7.856;2023-07-22T13:37:42;97232.09;;;25.53
24201;BMP280;2801;50.972;7.856;2023-07-22T13:40:10;97248.91;;;25.71
24201;BMP280;2801;50.972;7.856;2023-07-22T13:42:38;97243.25;;;25.94
24201;BMP280;2801;50.972;7.856;2023-07-22T13:45:06;97240.09;;;25.79
24201;BMP280;2801;50.972;7.856;2023-07-22T13:47:33;97224.81;;;25.78
24201;BMP280;2801;50.972;7.856;2023-07-22T13:50:00;97227.03;;;25.67
24201;BMP280;2801;50.972;7.856;2023-07-22T13:52:27;97227.72;;;25.71
24201;BMP280;2801;50.972;7.856;2023-07-22T13:54:54;97223.09;;;25.84
24201;BMP280;2801;50.972;7.856;2023-07-22T13:57:21;97215.03;;;25.93
24201;BMP280;2801;50.972;7.856;2023-07-22T13:59:48;97224.25;;;26.03
24201;BMP280;2801;50.972;7.856;2023-07-22T14:02:15;97217.09;;;25.89
24201;BMP280;2801;50.972;7.856;2023-07-22T14:04:42;97211.41;;;25.80
24201;BMP280;2801;50.972;7.856;2023-07-22T14:07:09;97216.41;;;25.85
24201;BMP280;2801;50.972;7.856;2023-07-22T14:09:36;97214.47;;;26.02
24201;BMP280;2801;50.972;7.856;2023-07-22T14:12:03;97214.78;;;26.20
24201;BMP280;2801;50.972;7.856;2023-07-22T14:14:30;97202.59;;;26.37
24201;BMP280;2801;50.972;7.856;2023-07-22T14:16:57;97202.03;;;26.42
24201;BMP280;2801;50.972;7.856;2023-07-22T14:19:24;97204.38;;;26.43
24201;BMP280;2801;50.972;7.856;2023-07-22T14:21:51;97203.94;;;26.45
24201;BMP280;2801;50.972;7.856;2023-07-22T14:24:18;97193.88;;;26.54
24201;BMP280;2801;50.972;7.856;2023-07-22T14:26:45;97189.13;;;26.71
24201;BMP280;2801;50.972;7.856;2023-07-22T14:29:14;97195.84;;;26.82
24201;BMP280;2801;50.972;7.856;2023-07-22T14:31:43;97189.63;;;26.94
24201;BMP280;2801;50.972;7.856;2023-07-22T14:34:10;97187.91;;;27.13
24201;BMP280;2801;50.972;7.856;2023-07-22T14:36:37;97184.06;;;27.10
24201;BMP280;2801;50.972;7.856;2023-07-22T14:39:04;97188.03;;;27.22
24201;BMP280;2801;50.972;7.856;2023-07-22T14:41:31;97176.28;;;27.21
24201;BMP280;2801;50.972;7.856;2023-07-22T14:43:58;97171.88;;;27.24
24201;BMP280;2801;50.972;7.856;2023-07-22T14:46:25;97184.78;;;27.39
24201;BMP280;2801;50.972;7.856;2023-07-22T14:48:53;97158.56;;;27.47
24201;BMP280;2801;50.972;7.856;2023-07-22T14:51:20;97167.25;;;27.71
24201;BMP280;2801;50.972;7.856;2023-07-22T14:53:47;97150.97;;;27.64
24201;BMP280;2801;50.972;7.856;2023-07-22T14:56:14;97159.31;;;27.73
24201;BMP280;2801;50.972;7.856;2023-07-22T14:58:41;97155.25;;;27.77
24201;BMP280;2801;50.972;7.856;2023-07-22T15:01:09;97151.50;;;27.71
24201;BMP280;2801;50.972;7.856;2023-07-22T15:03:37;97156.56;;;27.73
24201;BMP280;2801;50.972;7.856;2023-07-22T15:06:05;97153.50;;;27.58
24201;BMP280;2801;50.972;7.856;2023-07-22T15:08:33;97162.41;;;27.37
24201;BMP280;2801;50.972;7.856;2023-07-22T15:11:00;97161.53;;;27.40
24201;BMP280;2801;50.972;7.856;2023-07-22T15:13:27;97150.97;;;27.39
24201;BMP280;2801;50.972;7.856;2023-07-22T15:15:54;97151.63;;;27.30
24201;BMP280;2801;50.972;7.856;2023-07-22T15:18:24;97140.69;;;27.14
24201;BMP280;2801;50.972;7.856;2023-07-22T15:20:52;97142.56;;;27.17
24201;BMP280;2801;50.972;7.856;2023-07-22T15:23:19;97146.84;;;27.06
24201;BMP280;2801;50.972;7.856;2023-07-22T15:25:50;97144.88;;;27.06
24201;BMP280;2801;50.972;7.856;2023-07-22T15:28:17;97152.34;;;27.06
24201;BMP280;2801;50.972;7.856;2023-07-22T15:30:44;97139.44;;;27.03
24201;BMP280;2801;50.972;7.856;2023-07-22T15:33:11;97146.31;;;27.11
24201;BMP280;2801;50.972;7.856;2023-07-22T15:35:38;97147.06;;;27.11
24201;BMP280;2801;50.972;7.856;2023-07-22T15:38:05;97137.50;;;27.16
24201;BMP280;2801;50.972;7.856;2023-07-22T15:40:35;97136.09;;;27.24
24201;BMP280;2801;50.972;7.856;2023-07-22T15:43:03;97136.75;;;27.28
24201;BMP280;2801;50.972;7.856;2023-07-22T15:45:30;97146.25;;;27.27
24201;BMP280;2801;50.972;7.856;2023-07-22T15:47:57;97136.13;;;27.36
24201;BMP280;2801;50.972;7.856;2023-07-22T15:50:26;97127.94;;;27.45
24201;BMP280;2801;50.972;7.856;2023-07-22T15:52:53;97135.13;;;27.43
24201;BMP280;2801;50.972;7.856;2023-07-22T15:55:21;97130.03;;;27.41
24201;BMP280;2801;50.972;7.856;2023-07-22T15:57:48;97131.91;;;27.32
24201;BMP280;2801;50.972;7.856;2023-07-22T16:00:15;97126.31;;;27.35
24201;BMP280;2801;50.972;7.856;2023-07-22T16:02:42;97121.91;;;27.38
24201;BMP280;2801;50.972;7.856;2023-07-22T16:05:10;97121.34;;;27.43
24201;BMP280;2801;50.972;7.856;2023-07-22T16:07:49;97126.72;;;27.46
24201;BMP280;2801;50.972;7.856;2023-07-22T16:10:16;97122.34;;;27.49
24201;BMP280;2801;50.972;7.856;2023-07-22T16:12:43;97113.44;;;27.45
24201;BMP280;2801;50.972;7.856;2023-07-22T16:15:10;97115.31;;;27.35
24201;BMP280;2801;50.972;7.856;2023-07-22T16:17:37;97114.53;;;27.35
24201;BMP280;2801;50.972;7.856;2023-07-22T16:20:05;97113.59;;;27.13
24201;BMP280;2801;50.972;7.856;2023-07-22T16:22:32;97109.09;;;26.94
24201;BMP280;2801;50.972;7.856;2023-07-22T16:25:01;97104.97;;;26.73
24201;BMP280;2801;50.972;7.856;2023-07-22T16:27:28;97113.19;;;26.61
24201;BMP280;2801;50.972;7.856;2023-07-22T16:29:55;97117.44;;;26.49
24201;BMP280;2801;50.972;7.856;2023-07-22T16:32:23;97114.16;;;26.26
24201;BMP280;2801;50.972;7.856;2023-07-22T16:34:50;97119.84;;;26.19
24201;BMP280;2801;50.972;7.856;2023-07-22T16:37:17;97122.88;;;26.08
24201;BMP280;2801;50.972;7.856;2023-07-22T16:39:44;97116.59;;;25.92
24201;BMP280;2801;50.972;7.856;2023-07-22T16:42:11;97118.25;;;25.73